sensor_id;sensor_type;location;lat;lon;timestamp;pressure;altitude;pressure_sealevel;temperature;humidity
70521;BME280;58442;52.716;23.560;2023-04-01T00:00:14;99542.68;;;9.18;76.85
70521;BME280;58442;52.716;23.560;2023-04-01T00:02:20;99536.84;;;9.16;76.87
70521;BME280;58442;52.716;23.560;2023-04-01T00:04:23;99536.48;;;9.18;76.93
70521;BME280;58442;52.716;23.560;2023-04-01T00:06:24;99532.61;;;9.19;76.92
70521;BME280;58442;52.716;23.560;2023-04-01T00:08:27;99538.80;;;9.19;76.95
70521;BME280;58442;52.716;23.560;2023-04-01T00:10:28;99530.68;;;9.19;77.01
70521;BME280;58442;52.716;23.560;2023-04-01T00:12:39;99524.13;;;9.20;77.02
70521;BME280;58442;52.716;23.560;2023-04-01T00:14:41;99525.26;;;9.19;77.03
70521;BME280;58442;52.716;23.560;2023-04-01T00:16:42;99524.13;;;9.20;77.06
70521;BME280;58442;52.716;23.560;2023-04-01T00:18:44;99529.96;;;9.22;77.07
70521;BME280;58442;52.716;23.560;2023-04-01T00:20:53;99524.95;;;9.24;77.04
70521;BME280;58442;52.716;23.560;2023-04-01T00:22:54;99521.08;;;9.25;77.03
70521;BME280;58442;52.716;23.560;2023-04-01T00:24:56;99521.08;;;9.25;76.96
70521;BME280;58442;52.716;23.560;2023-04-01T00:26:58;99518.80;;;9.27;76.96
70521;BME280;58442;52.716;23.560;2023-04-01T00:29:08;99520.73;;;9.27;76.98
70521;BME280;58442;52.716;23.560;2023-04-01T00:31:13;99515.66;;;9.25;77.04
70521;BME280;58442;52.716;23.560;2023-04-01T00:33:15;99506.74;;;9.25;76.79
70521;BME280;58442;52.716;23.560;2023-04-01T00:35:17;99513.38;;;9.27;77.08
70521;BME280;58442;52.716;23.560;2023-04-01T00:37:23;99518.80;;;9.27;77.16
70521;BME280;58442;52.716;23.560;2023-04-01T00:39:25;99513.00;;;9.29;77.17
70521;BME280;58442;52.716;23.560;2023-04-01T00:41:29;99503.35;;;9.31;77.12
70521;BME280;58442;52.716;23.560;2023-04-01T00:43:31;99510.70;;;9.31;77.14
70521;BME280;58442;52.716;23.560;2023-04-01T00:45:40;99503.35;;;9.31;77.19
70521;BME280;58442;52.716;23.560;2023-04-01T00:47:42;99506.05;;;9.31;77.23
70521;BME280;58442;52.716;23.560;2023-04-01T00:49:46;99502.62;;;9.35;77.20
70521;BME280;58442;52.716;23.560;2023-04-01T00:51:50;99499.16;;;9.38;77.13
70521;BME280;58442;52.716;23.560;2023-04-01T00:53:54;99493.36;;;9.39;77.12
70521;BME280;58442;52.716;23.560;2023-04-01T00:56:01;99491.08;;;9.41;77.16
70521;BME280;58442;52.716;23.560;2023-04-01T00:58:05;99492.64;;;9.42;77.14
70521;BME280;58442;52.716;23.560;2023-04-01T01:00:11;99496.52;;;9.45;77.14
70521;BME280;58442;52.716;23.560;2023-04-01T01:02:15;99498.87;;;9.46;77.15
70521;BME280;58442;52.716;23.560;2023-04-01T01:04:26;99488.80;;;9.47;77.15
70521;BME280;58442;52.716;23.560;2023-04-01T01:06:37;99495.80;;;9.48;77.10
70521;BME280;58442;52.716;23.560;2023-04-01T01:08:52;99484.96;;;9.48;77.09
70521;BME280;58442;52.716;23.560;2023-04-01T01:10:55;99483.38;;;9.47;77.18
70521;BME280;58442;52.716;23.560;2023-04-01T01:15:26;99482.24;;;9.48;77.24
70521;BME280;58442;52.716;23.560;2023-04-01T01:17:48;99483.38;;;9.47;77.32
70521;BME280;58442;52.716;23.560;2023-04-01T01:22:31;99478.33;;;9.45;77.37
70521;BME280;58442;52.716;23.560;2023-04-01T01:24:50;99471.72;;;9.43;77.40
70521;BME280;58442;52.716;23.560;2023-04-01T01:27:08;99471.72;;;9.43;77.46
70521;BME280;58442;52.716;23.560;2023-04-01T01:31:34;99476.38;;;9.46;77.51
70521;BME280;58442;52.716;23.560;2023-04-01T01:35:53;99482.64;;;9.50;77.35
70521;BME280;58442;52.716;23.560;2023-04-01T01:38:03;99477.25;;;9.53;77.28
70521;BME280;58442;52.716;23.560;2023-04-01T01:40:12;99472.63;;;9.54;77.18
70521;BME280;58442;52.716;23.560;2023-04-01T01:42:16;99472.63;;;9.54;77.24
70521;BME280;58442;52.716;23.560;2023-04-01T01:44:19;99470.27;;;9.52;77.26
70521;BME280;58442;52.716;23.560;2023-04-01T01:46:24;99476.07;;;9.51;77.32
70521;BME280;58442;52.716;23.560;2023-04-01T01:48:28;99465.22;;;9.51;77.42
70521;BME280;58442;52.716;23.560;2023-04-01T01:50:31;99473.73;;;9.49;77.43
70521;BME280;58442;52.716;23.560;2023-04-01T01:52:32;99471.40;;;9.48;77.46
70521;BME280;58442;52.716;23.560;2023-04-01T01:54:34;99468.69;;;9.48;77.51
70521;BME280;58442;52.716;23.560;2023-04-01T01:56:41;99467.53;;;9.49;77.52
70521;BME280;58442;52.716;23.560;2023-04-01T01:58:54;99459.40;;;9.49;77.47
70521;BME280;58442;52.716;23.560;2023-04-01T02:01:06;99466.38;;;9.50;77.46
70521;BME280;58442;52.716;23.560;2023-04-01T02:03:08;99457.46;;;9.49;77.42
70521;BME280;58442;52.716;23.560;2023-04-01T02:05:16;99457.85;;;9.51;77.39
70521;BME280;58442;52.716;23.560;2023-04-01T02:07:31;99452.81;;;9.50;77.40
70521;BME280;58442;52.716;23.560;2023-04-01T02:09:34;99446.23;;;9.51;77.43
70521;BME280;58442;52.716;23.560;2023-04-01T02:11:45;99451.26;;;9.49;77.48
70521;BME280;58442;52.716;23.560;2023-04-01T02:13:58;99453.19;;;9.48;77.50
70521;BME280;58442;52.716;23.560;2023-04-01T02:16:06;99452.81;;;9.50;77.50
70521;BME280;58442;52.716;23.560;2023-04-01T02:18:10;99454.37;;;9.51;77.48
70521;BME280;58442;52.716;23.560;2023-04-01T02:20:24;99447.79;;;9.52;77.44
70521;BME280;58442;52.716;23.560;2023-04-01T02:22:29;99439.24;;;9.50;77.44
70521;BME280;58442;52.716;23.560;2023-04-01T02:24:35;99435.39;;;9.51;77.45
70521;BME280;58442;52.716;23.560;2023-04-01T02:26:38;99437.32;;;9.50;77.41
70521;BME280;58442;52.716;23.560;2023-04-01T02:28:41;99436.15;;;9.48;77.44
70521;BME280;58442;52.716;23.560;2023-04-01T02:30:44;99430.72;;;9.48;77.51
70521;BME280;58442;52.716;23.560;2023-04-01T02:32:46;99437.27;;;9.47;77.53
70521;BME280;58442;52.716;23.560;2023-04-01T02:34:49;99428.36;;;9.46;77.53
70521;BME280;58442;52.716;23.560;2023-04-01T02:36:54;99430.29;;;9.46;77.55
70521;BME280;58442;52.716;23.560;2023-04-01T02:38:57;99428.73;;;9.45;77.55
70521;BME280;58442;52.716;23.560;2023-04-01T02:41:05;99422.13;;;9.42;77.64
70521;BME280;58442;52.716;23.560;2023-04-01T02:43:07;99422.13;;;9.42;77.63
70521;BME280;58442;52.716;23.560;2023-04-01T02:45:09;99424.84;;;9.42;77.61
70521;BME280;58442;52.716;23.560;2023-04-01T02:47:11;99425.63;;;9.43;77.64
70521;BME280;58442;52.716;23.560;2023-04-01T02:49:13;99427.56;;;9.42;77.65
70521;BME280;58442;52.716;23.560;2023-04-01T02:51:14;99431.42;;;9.41;77.68
70521;BME280;58442;52.716;23.560;2023-04-01T02:53:24;99422.91;;;9.43;77.69
70521;BME280;58442;52.716;23.560;2023-04-01T02:55:25;99429.52;;;9.45;77.73
70521;BME280;58442;52.716;23.560;2023-04-01T02:57:27;99428.36;;;9.46;77.69
70521;BME280;58442;52.716;23.560;2023-04-01T02:59:28;99429.56;;;9.49;77.65
70521;BME280;58442;52.716;23.560;2023-04-01T03:01:38;99435.01;;;9.52;77.59
70521;BME280;58442;52.716;23.560;2023-04-01T03:03:40;99433.50;;;9.55;77.52
70521;BME280;58442;52.716;23.560;2023-04-01T03:05:41;99433.91;;;9.57;77.46
70521;BME280;58442;52.716;23.560;2023-04-01T03:07:43;99431.19;;;9.57;77.39
70521;BME280;58442;52.716;23.560;2023-04-01T03:09:53;99433.91;;;9.57;77.42
70521;BME280;58442;52.716;23.560;2023-04-01T03:11:55;99437.39;;;9.57;77.48
70521;BME280;58442;52.716;23.560;2023-04-01T03:13:57;99429.26;;;9.57;77.48
70521;BME280;58442;52.716;23.560;2023-04-01T03:15:58;99431.56;;;9.55;77.52
70521;BME280;58442;52.716;23.560;2023-04-01T03:18:08;99430.37;;;9.53;77.62
70521;BME280;58442;52.716;23.560;2023-04-01T03:20:11;99427.25;;;9.51;77.75
70521;BME280;58442;52.716;23.560;2023-04-01T03:22:12;99431.52;;;9.52;77.85
70521;BME280;58442;52.716;23.560;2023-04-01T03:24:14;99429.59;;;9.52;77.87
70521;BME280;58442;52.716;23.560;2023-04-01T03:26:23;99423.81;;;9.54;77.84
70521;BME280;58442;52.716;23.560;2023-04-01T03:28:24;99430.02;;;9.54;77.87
70521;BME280;58442;52.716;23.560;2023-04-01T03:30:26;99426.15;;;9.55;77.86
70521;BME280;58442;52.716;23.560;2023-04-01T03:32:27;99417.63;;;9.57;77.83
70521;BME280;58442;52.716;23.560;2023-04-01T03:34:38;99425.38;;;9.58;77.82
70521;BME280;58442;52.716;23.560;2023-04-01T03:36:40;99418.41;;;9.57;77.81
70521;BME280;58442;52.716;23.560;2023-04-01T03:38:42;99423.45;;;9.59;77.85
70521;BME280;58442;52.716;23.560;2023-04-01T03:40:44;99411.82;;;9.58;77.79
70521;BME280;58442;52.716;23.560;2023-04-01T03:42:53;99416.09;;;9.59;77.85
70521;BME280;58442;52.716;23.560;2023-04-01T03:44:54;99415.75;;;9.61;77.87
70521;BME280;58442;52.716;23.560;2023-04-01T03:46:56;99417.65;;;9.60;77.88
70521;BME280;58442;52.716;23.560;2023-04-01T03:48:57;99427.72;;;9.60;77.99
70521;BME280;58442;52.716;23.560;2023-04-01T03:51:08;99428.55;;;9.64;78.00
70521;BME280;58442;52.716;23.560;2023-04-01T03:53:10;99429.72;;;9.67;77.96
70521;BME280;58442;52.716;23.560;2023-04-01T03:55:11;99439.85;;;9.70;77.96
70521;BME280;58442;52.716;23.560;2023-04-01T03:57:13;99429.39;;;9.72;77.94
70521;BME280;58442;52.716;23.560;2023-04-01T03:59:23;99434.09;;;9.75;77.98
70521;BME280;58442;52.716;23.560;2023-04-01T04:01:24;99435.64;;;9.76;78.02
70521;BME280;58442;52.716;23.560;2023-04-01T04:03:25;99435.66;;;9.79;77.97
70521;BME280;58442;52.716;23.560;2023-04-01T04:05:27;99436.44;;;9.80;77.86
70521;BME280;58442;52.716;23.560;2023-04-01T04:07:37;99422.88;;;9.80;78.05
70521;BME280;58442;52.716;23.560;2023-04-01T04:09:39;99431.05;;;9.83;78.06
70521;BME280;58442;52.716;23.560;2023-04-01T04:11:40;99422.92;;;9.83;78.03
70521;BME280;58442;52.716;23.560;2023-04-01T04:13:42;99431.45;;;9.85;78.07
70521;BME280;58442;52.716;23.560;2023-04-01T04:15:53;99429.52;;;9.86;78.12
70521;BME280;58442;52.716;23.560;2023-04-01T04:17:54;99428.36;;;9.87;78.15
70521;BME280;58442;52.716;23.560;2023-04-01T04:19:55;99433.44;;;9.89;78.12
70521;BME280;58442;52.716;23.560;2023-04-01T04:21:57;99429.57;;;9.90;78.11
70521;BME280;58442;52.716;23.560;2023-04-01T04:24:08;99429.59;;;9.93;78.08
70521;BME280;58442;52.716;23.560;2023-04-01T04:26:13;99431.13;;;9.94;78.08
70521;BME280;58442;52.716;23.560;2023-04-01T04:28:14;99434.28;;;9.96;78.05
70521;BME280;58442;52.716;23.560;2023-04-01T04:30:16;99429.24;;;9.98;77.99
70521;BME280;58442;52.716;23.560;2023-04-01T04:32:22;99433.91;;;10.01;77.97
70521;BME280;58442;52.716;23.560;2023-04-01T04:34:24;99430.84;;;10.03;77.94
70521;BME280;58442;52.716;23.560;2023-04-01T04:36:25;99435.90;;;10.04;77.88
70521;BME280;58442;52.716;23.560;2023-04-01T04:38:27;99435.12;;;10.04;77.88
70521;BME280;58442;52.716;23.560;2023-04-01T04:40:40;99437.84;;;10.04;77.93
70521;BME280;58442;52.716;23.560;2023-04-01T04:42:42;99432.41;;;10.04;78.01
70521;BME280;58442;52.716;23.560;2023-04-01T04:44:43;99435.52;;;10.06;78.00
70521;BME280;58442;52.716;23.560;2023-04-01T04:46:45;99437.84;;;10.07;77.95
70521;BME280;58442;52.716;23.560;2023-04-01T04:48:52;99442.91;;;10.09;77.98
70521;BME280;58442;52.716;23.560;2023-04-01T04:50:54;99448.34;;;10.09;77.98
70521;BME280;58442;52.716;23.560;2023-04-01T04:52:55;99448.74;;;10.11;78.00
70521;BME280;58442;52.716;23.560;2023-04-01T04:54:56;99449.92;;;10.13;77.98
70521;BME280;58442;52.716;23.560;2023-04-01T04:57:07;99442.55;;;10.14;77.96
70521;BME280;58442;52.716;23.560;2023-04-01T04:59:09;99455.74;;;10.15;77.96
70521;BME280;58442;52.716;23.560;2023-04-01T05:01:13;99448.03;;;10.18;77.93
70521;BME280;58442;52.716;23.560;2023-04-01T05:03:14;99449.59;;;10.19;77.94
70521;BME280;58442;52.716;23.560;2023-04-01T05:05:22;99442.22;;;10.19;77.97
70521;BME280;58442;52.716;23.560;2023-04-01T05:07:24;99444.99;;;10.23;77.99
70521;BME280;58442;52.716;23.560;2023-04-01T05:09:25;99454.31;;;10.25;77.92
70521;BME280;58442;52.716;23.560;2023-04-01T05:11:27;99450.44;;;10.26;77.84
70521;BME280;58442;52.716;23.560;2023-04-01T05:13:37;99452.38;;;10.26;77.89
70521;BME280;58442;52.716;23.560;2023-04-01T05:15:38;99452.38;;;10.26;77.93
70521;BME280;58442;52.716;23.560;2023-04-01T05:17:40;99449.28;;;10.27;77.89
70521;BME280;58442;52.716;23.560;2023-04-01T05:19:41;99450.84;;;10.28;77.87
70521;BME280;58442;52.716;23.560;2023-04-01T05:21:52;99450.84;;;10.28;77.96
70521;BME280;58442;52.716;23.560;2023-04-01T05:23:54;99454.34;;;10.29;77.93
70521;BME280;58442;52.716;23.560;2023-04-01T05:25:56;99450.48;;;10.30;77.92
70521;BME280;58442;52.716;23.560;2023-04-01T05:27:57;99445.45;;;10.32;77.90
70521;BME280;58442;52.716;23.560;2023-04-01T05:30:07;99446.61;;;10.34;77.87
70521;BME280;58442;52.716;23.560;2023-04-01T05:32:08;99454.03;;;10.37;77.88
70521;BME280;58442;52.716;23.560;2023-04-01T05:34:10;99454.42;;;10.39;77.80
70521;BME280;58442;52.716;23.560;2023-04-01T05:36:16;99452.10;;;10.41;77.77
70521;BME280;58442;52.716;23.560;2023-04-01T05:38:21;99456.38;;;10.43;77.71
70521;BME280;58442;52.716;23.560;2023-04-01T05:40:23;99462.23;;;10.45;77.74
70521;BME280;58442;52.716;23.560;2023-04-01T05:42:24;99459.51;;;10.45;77.69
70521;BME280;58442;52.716;23.560;2023-04-01T05:44:26;99454.86;;;10.45;77.67
70521;BME280;58442;52.716;23.560;2023-04-01T05:46:36;99459.13;;;10.46;77.63
70521;BME280;58442;52.716;23.560;2023-04-01T05:48:38;99459.52;;;10.48;77.67
70521;BME280;58442;52.716;23.560;2023-04-01T05:50:40;99459.14;;;10.50;77.62
70521;BME280;58442;52.716;23.560;2023-04-01T05:52:42;99458.00;;;10.51;77.65
70521;BME280;58442;52.716;23.560;2023-04-01T05:54:51;99452.97;;;10.53;77.66
70521;BME280;58442;52.716;23.560;2023-04-01T05:56:53;99454.13;;;10.55;77.64
70521;BME280;58442;52.716;23.560;2023-04-01T05:58:54;99452.97;;;10.56;77.61
70521;BME280;58442;52.716;23.560;2023-04-01T06:01:02;99457.27;;;10.57;77.63
70521;BME280;58442;52.716;23.560;2023-04-01T06:03:06;99455.73;;;10.60;77.71
70521;BME280;58442;52.716;23.560;2023-04-01T06:05:15;99461.97;;;10.64;77.75
70521;BME280;58442;52.716;23.560;2023-04-01T06:07:18;99451.88;;;10.68;77.69
70521;BME280;58442;52.716;23.560;2023-04-01T06:09:26;99463.16;;;10.70;77.64
70521;BME280;58442;52.716;23.560;2023-04-01T06:12:00;99454.26;;;10.73;77.68
70521;BME280;58442;52.716;23.560;2023-04-01T06:20:56;99457.85;;;10.91;77.49
70521;BME280;58442;52.716;23.560;2023-04-01T06:25:40;99461.78;;;11.01;77.42
70521;BME280;58442;52.716;23.560;2023-04-01T06:46:50;99458.06;;;11.41;77.03
70521;BME280;58442;52.716;23.560;2023-04-01T06:51:24;99458.48;;;11.47;76.87
70521;BME280;58442;52.716;23.560;2023-04-01T06:53:28;99459.25;;;11.47;76.77
70521;BME280;58442;52.716;23.560;2023-04-01T06:55:43;99458.48;;;11.47;76.84
70521;BME280;58442;52.716;23.560;2023-04-01T06:57:48;99462.35;;;11.49;76.90
70521;BME280;58442;52.716;23.560;2023-04-01T06:59:55;99454.21;;;11.57;76.78
70521;BME280;58442;52.716;23.560;2023-04-01T07:02:05;99457.73;;;11.61;76.79
70521;BME280;58442;52.716;23.560;2023-04-01T07:04:15;99452.66;;;11.66;76.72
70521;BME280;58442;52.716;23.560;2023-04-01T07:08:36;99460.88;;;11.73;76.66
70521;BME280;58442;52.716;23.560;2023-04-01T07:12:58;99457.35;;;11.80;76.60
70521;BME280;58442;52.716;23.560;2023-04-01T07:15:27;99461.29;;;11.86;76.48
70521;BME280;58442;52.716;23.560;2023-04-01T07:21:47;99470.64;;;11.89;76.52
70521;BME280;58442;52.716;23.560;2023-04-01T07:23:51;99464.02;;;11.93;76.48
70521;BME280;58442;52.716;23.560;2023-04-01T07:26:25;99460.93;;;11.95;76.68
70521;BME280;58442;52.716;23.560;2023-04-01T07:28:19;99468.70;;;12.00;76.56
70521;BME280;58442;52.716;23.560;2023-04-01T07:30:22;99464.02;;;12.00;76.55
70521;BME280;58442;52.716;23.560;2023-04-01T07:32:38;99468.71;;;12.03;76.54
70521;BME280;58442;52.716;23.560;2023-04-01T07:39:18;99458.99;;;12.17;76.19
70521;BME280;58442;52.716;23.560;2023-04-01T07:53:16;99467.93;;;12.14;76.20
70521;BME280;58442;52.716;23.560;2023-04-01T07:55:30;99472.61;;;12.17;76.17
70521;BME280;58442;52.716;23.560;2023-04-01T07:57:49;99474.55;;;12.20;76.07
70521;BME280;58442;52.716;23.560;2023-04-01T08:04:36;99470.28;;;12.37;75.70
70521;BME280;58442;52.716;23.560;2023-04-01T08:15:53;99468.63;;;12.89;74.84
70521;BME280;58442;52.716;23.560;2023-04-01T08:18:20;99473.29;;;12.99;74.82
70521;BME280;58442;52.716;23.560;2023-04-01T08:20:39;99472.87;;;13.11;74.75
70521;BME280;58442;52.716;23.560;2023-04-01T08:22:51;99461.92;;;13.15;74.66
70521;BME280;58442;52.716;23.560;2023-04-01T08:24:57;99471.66;;;13.20;74.61
70521;BME280;58442;52.716;23.560;2023-04-01T08:27:09;99474.39;;;13.20;74.53
70521;BME280;58442;52.716;23.560;2023-04-01T08:29:16;99476.74;;;13.14;74.43
70521;BME280;58442;52.716;23.560;2023-04-01T08:33:33;99472.48;;;13.02;74.55
70521;BME280;58442;52.716;23.560;2023-04-01T08:35:42;99475.61;;;13.01;74.47
70521;BME280;58442;52.716;23.560;2023-04-01T08:37:48;99482.62;;;13.02;74.43
70521;BME280;58442;52.716;23.560;2023-04-01T08:39:57;99482.21;;;13.03;74.34
70521;BME280;58442;52.716;23.560;2023-04-01T08:44:30;99482.24;;;13.00;74.36
70521;BME280;58442;52.716;23.560;2023-04-01T08:46:45;99486.52;;;13.04;74.24
70521;BME280;58442;52.716;23.560;2023-04-01T08:51:42;99477.12;;;13.20;73.89
70521;BME280;58442;52.716;23.560;2023-04-01T09:07:58;99481.68;;;13.51;73.18
70521;BME280;58442;52.716;23.560;2023-04-01T09:15:06;99475.75;;;13.67;72.87
70521;BME280;58442;52.716;23.560;2023-04-01T09:33:53;99490.63;;;13.52;72.49
70521;BME280;58442;52.716;23.560;2023-04-01T09:36:12;99496.50;;;13.54;72.28
70521;BME280;58442;52.716;23.560;2023-04-01T09:40:57;99493.40;;;13.45;72.44
70521;BME280;58442;52.716;23.560;2023-04-01T09:50:26;99497.30;;;13.47;72.18
70521;BME280;58442;52.716;23.560;2023-04-01T09:52:42;99500.84;;;13.40;72.07
70521;BME280;58442;52.716;23.560;2023-04-01T10:02:15;99505.20;;;13.13;72.42
70521;BME280;58442;52.716;23.560;2023-04-01T10:13:57;99515.31;;;13.23;72.30
70521;BME280;58442;52.716;23.560;2023-04-01T10:16:19;99510.64;;;13.24;72.21
70521;BME280;58442;52.716;23.560;2023-04-01T10:20:57;99514.49;;;13.37;72.19
70521;BME280;58442;52.716;23.560;2023-04-01T10:49:23;99515.95;;;13.66;71.02
70521;BME280;58442;52.716;23.560;2023-04-01T11:15:54;99509.19;;;14.48;68.82
70521;BME280;58442;52.716;23.560;2023-04-01T11:17:38;99522.04;;;14.51;68.63
70521;BME280;58442;52.716;23.560;2023-04-01T11:26:58;99518.61;;;14.36;68.27
70521;BME280;58442;52.716;23.560;2023-04-01T11:45:49;99541.76;;;13.44;68.90
70521;BME280;58442;52.716;23.560;2023-04-01T11:50:33;99545.73;;;13.18;69.26
70521;BME280;58442;52.716;23.560;2023-04-01T11:55:15;99550.41;;;13.03;69.54
70521;BME280;58442;52.716;23.560;2023-04-01T11:57:36;99545.74;;;12.97;69.67
70521;BME280;58442;52.716;23.560;2023-04-01T11:59:57;99551.60;;;12.95;69.76
70521;BME280;58442;52.716;23.560;2023-04-01T12:04:38;99550.05;;;12.94;69.81
70521;BME280;58442;52.716;23.560;2023-04-01T12:07:01;99555.09;;;12.96;69.82
70521;BME280;58442;52.716;23.560;2023-04-01T12:09:25;99549.27;;;12.97;69.81
70521;BME280;58442;52.716;23.560;2023-04-01T12:16:28;99553.54;;;13.05;69.94
70521;BME280;58442;52.716;23.560;2023-04-01T12:23:37;99560.13;;;13.15;69.75
70521;BME280;58442;52.716;23.560;2023-04-01T12:25:55;99563.27;;;13.21;69.41
70521;BME280;58442;52.716;23.560;2023-04-01T12:30:34;99565.61;;;13.26;69.16
70521;BME280;58442;52.716;23.560;2023-04-01T12:35:17;99558.55;;;13.35;69.04
70521;BME280;58442;52.716;23.560;2023-04-01T12:54:08;99564.24;;;13.77;67.98
70521;BME280;58442;52.716;23.560;2023-04-01T13:08:18;99563.30;;;14.08;67.51
70521;BME280;58442;52.716;23.560;2023-04-01T13:13:00;99566.78;;;14.12;67.46
70521;BME280;58442;52.716;23.560;2023-04-01T13:38:56;99571.73;;;14.35;66.91
70521;BME280;58442;52.716;23.560;2023-04-01T13:41:39;99572.10;;;14.34;66.90
70521;BME280;58442;52.716;23.560;2023-04-01T13:46:03;99573.30;;;14.33;66.84
70521;BME280;58442;52.716;23.560;2023-04-01T13:50:39;99578.40;;;14.27;66.89
70521;BME280;58442;52.716;23.560;2023-04-01T14:14:21;99606.14;;;13.13;69.15
70521;BME280;58442;52.716;23.560;2023-04-01T14:35:26;99596.30;;;13.62;69.04
70521;BME280;58442;52.716;23.560;2023-04-01T14:44:52;99603.34;;;13.59;69.02
70521;BME280;58442;52.716;23.560;2023-04-01T14:49:34;99613.10;;;13.53;69.06
70521;BME280;58442;52.716;23.560;2023-04-01T14:51:38;99611.55;;;13.52;69.04
70521;BME280;58442;52.716;23.560;2023-04-01T14:56:01;99608.04;;;13.48;68.98
70521;BME280;58442;52.716;23.560;2023-04-01T14:58:12;99614.30;;;13.45;69.05
70521;BME280;58442;52.716;23.560;2023-04-01T15:00:17;99613.52;;;13.41;69.14
70521;BME280;58442;52.716;23.560;2023-04-01T15:02:40;99614.30;;;13.38;69.14
70521;BME280;58442;52.716;23.560;2023-04-01T15:09:40;99611.98;;;13.29;69.16
70521;BME280;58442;52.716;23.560;2023-04-01T15:14:26;99619.39;;;13.29;69.13
70521;BME280;58442;52.716;23.560;2023-04-01T15:16:46;99628.34;;;13.29;69.07
70521;BME280;58442;52.716;23.560;2023-04-01T15:23:51;99627.57;;;13.29;68.96
70521;BME280;58442;52.716;23.560;2023-04-01T15:26:17;99629.13;;;13.30;68.96
70521;BME280;58442;52.716;23.560;2023-04-01T15:28:36;99637.32;;;13.30;68.91
70521;BME280;58442;52.716;23.560;2023-04-01T15:37:57;99657.19;;;13.20;69.16
70521;BME280;58442;52.716;23.560;2023-04-01T15:42:46;99659.54;;;13.18;69.25
70521;BME280;58442;52.716;23.560;2023-04-01T15:49:43;99661.08;;;13.15;69.31
70521;BME280;58442;52.716;23.560;2023-04-01T15:52:06;99658.75;;;13.13;69.33
70521;BME280;58442;52.716;23.560;2023-04-01T15:56:51;99666.91;;;13.10;69.44
70521;BME280;58442;52.716;23.560;2023-04-01T16:03:55;99672.79;;;13.05;69.59
70521;BME280;58442;52.716;23.560;2023-04-01T16:10:54;99675.11;;;13.03;69.77
70521;BME280;58442;52.716;23.560;2023-04-01T16:17:44;99685.65;;;13.04;69.90
70521;BME280;58442;52.716;23.560;2023-04-01T16:19:53;99682.92;;;13.04;69.90
70521;BME280;58442;52.716;23.560;2023-04-01T16:24:23;99696.15;;;13.02;69.94
70521;BME280;58442;52.716;23.560;2023-04-01T16:43:15;99714.81;;;12.75;70.46
70521;BME280;58442;52.716;23.560;2023-04-01T16:45:19;99724.16;;;12.74;70.49
70521;BME280;58442;52.716;23.560;2023-04-01T16:50:17;99723.76;;;12.69;70.53
70521;BME280;58442;52.716;23.560;2023-04-01T16:52:17;99724.16;;;12.64;70.58
70521;BME280;58442;52.716;23.560;2023-04-01T16:54:35;99717.90;;;12.59;70.69
70521;BME280;58442;52.716;23.560;2023-04-01T16:56:56;99731.55;;;12.56;70.73
70521;BME280;58442;52.716;23.560;2023-04-01T16:59:07;99731.13;;;12.50;70.89
70521;BME280;58442;52.716;23.560;2023-04-01T17:01:13;99728.37;;;12.47;70.95
70521;BME280;58442;52.716;23.560;2023-04-01T17:03:29;99743.94;;;12.46;70.95
70521;BME280;58442;52.716;23.560;2023-04-01T17:17:01;99760.63;;;12.30;71.05
70521;BME280;58442;52.716;23.560;2023-04-01T17:21:45;99760.22;;;12.25;71.10
70521;BME280;58442;52.716;23.560;2023-04-01T17:33:25;99770.65;;;12.09;71.47
70521;BME280;58442;52.716;23.560;2023-04-01T17:42:47;99789.25;;;11.99;71.67
70521;BME280;58442;52.716;23.560;2023-04-01T17:51:43;99790.72;;;11.86;71.91
70521;BME280;58442;52.716;23.560;2023-04-01T17:56:07;99789.94;;;11.86;71.95
70521;BME280;58442;52.716;23.560;2023-04-01T17:58:22;99796.15;;;11.83;71.97
70521;BME280;58442;52.716;23.560;2023-04-01T18:05:26;99800.36;;;11.76;72.09
70521;BME280;58442;52.716;23.560;2023-04-01T18:10:11;99807.31;;;11.70;72.31
70521;BME280;58442;52.716;23.560;2023-04-01T18:19:38;99820.91;;;11.67;72.35
70521;BME280;58442;52.716;23.560;2023-04-01T18:21:51;99816.59;;;11.66;72.30
70521;BME280;58442;52.716;23.560;2023-04-01T18:24:00;99824.77;;;11.66;72.29
70521;BME280;58442;52.716;23.560;2023-04-01T18:26:20;99828.64;;;11.65;72.29
70521;BME280;58442;52.716;23.560;2023-04-01T18:28:35;99831.75;;;11.63;72.29
70521;BME280;58442;52.716;23.560;2023-04-01T18:30:36;99825.52;;;11.63;72.27
70521;BME280;58442;52.716;23.560;2023-04-01T18:35:02;99834.80;;;11.58;72.32
70521;BME280;58442;52.716;23.560;2023-04-01T18:39:42;99842.90;;;11.47;72.67
70521;BME280;58442;52.716;23.560;2023-04-01T18:53:53;99855.59;;;11.36;72.89
70521;BME280;58442;52.716;23.560;2023-04-01T18:56:15;99856.31;;;11.30;73.12
70521;BME280;58442;52.716;23.560;2023-04-01T18:58:34;99851.20;;;11.24;73.27
70521;BME280;58442;52.716;23.560;2023-04-01T19:00:46;99851.58;;;11.23;73.38
70521;BME280;58442;52.716;23.560;2023-04-01T19:02:56;99859.34;;;11.21;73.44
70521;BME280;58442;52.716;23.560;2023-04-01T19:05:11;99858.19;;;11.22;73.47
70521;BME280;58442;52.716;23.560;2023-04-01T19:09:42;99860.90;;;11.22;73.47
70521;BME280;58442;52.716;23.560;2023-04-01T19:11:45;99864.02;;;11.24;73.43
70521;BME280;58442;52.716;23.560;2023-04-01T19:21:18;99876.07;;;11.23;73.36
70521;BME280;58442;52.716;23.560;2023-04-01T19:25:52;99887.70;;;11.20;73.40
70521;BME280;58442;52.716;23.560;2023-04-01T19:33:00;99891.28;;;10.94;73.87
70521;BME280;58442;52.716;23.560;2023-04-01T19:37:56;99904.31;;;10.81;74.04
70521;BME280;58442;52.716;23.560;2023-04-01T19:47:16;99912.94;;;10.57;74.35
70521;BME280;58442;52.716;23.560;2023-04-01T19:52:12;99924.43;;;10.47;74.45
70521;BME280;58442;52.716;23.560;2023-04-01T19:56:24;99930.91;;;10.38;74.61
70521;BME280;58442;52.716;23.560;2023-04-01T19:58:44;99932.85;;;10.38;74.62
70521;BME280;58442;52.716;23.560;2023-04-01T20:00:55;99941.71;;;10.35;74.54